createdAt,value
2023-05-19T00:00:07.767Z,7.60
2023-05-19T00:02:38.361Z,7.54
2023-05-19T00:05:06.670Z,7.49
2023-05-19T00:07:38.718Z,7.42
2023-05-19T00:10:07.207Z,7.40
2023-05-19T00:12:35.637Z,7.41
2023-05-19T00:15:03.547Z,7.37
2023-05-19T00:17:30.894Z,7.34
2023-05-19T00:19:58.100Z,7.25
2023-05-19T00:22:25.291Z,7.22
2023-05-19T00:24:53.939Z,7.23
2023-05-19T00:27:21.126Z,7.16
2023-05-19T00:29:48.347Z,7.12
2023-05-19T00:32:15.804Z,7.06
2023-05-19T00:34:43.126Z,7.08
2023-05-19T00:37:10.350Z,7.08
2023-05-19T00:39:37.771Z,7.01
2023-05-19T00:42:06.665Z,6.95
2023-05-19T00:44:33.965Z,6.85
2023-05-19T00:47:01.356Z,6.85
2023-05-19T00:49:28.692Z,6.85
2023-05-19T00:51:56.168Z,6.89
2023-05-19T00:54:23.899Z,6.88
2023-05-19T00:56:51.136Z,6.86
2023-05-19T00:59:19.830Z,6.83
2023-05-19T01:01:47.397Z,6.77
2023-05-19T01:04:14.658Z,6.76
2023-05-19T01:06:42.141Z,6.69
2023-05-19T01:09:09.378Z,6.62
2023-05-19T01:11:36.639Z,6.58
2023-05-19T01:14:03.945Z,6.55
2023-05-19T01:16:40.233Z,6.57
2023-05-19T01:19:19.228Z,6.59
2023-05-19T01:22:13.635Z,6.54
2023-05-19T01:25:09.729Z,6.59
2023-05-19T01:27:53.945Z,6.59
2023-05-19T01:30:30.481Z,6.54
2023-05-19T01:33:01.121Z,6.52
2023-05-19T01:35:30.578Z,6.52
2023-05-19T01:38:00.706Z,6.44
2023-05-19T01:40:30.054Z,6.45
2023-05-19T01:42:59.317Z,6.48
2023-05-19T01:45:29.987Z,6.48
2023-05-19T01:48:01.046Z,6.41
2023-05-19T01:50:28.777Z,6.39
2023-05-19T01:52:56.088Z,6.31
2023-05-19T01:55:23.820Z,6.33
2023-05-19T01:58:00.833Z,6.30
2023-05-19T02:00:42.003Z,6.27
2023-05-19T02:03:21.029Z,6.21
2023-05-19T02:05:55.542Z,6.17
2023-05-19T02:08:29.274Z,6.15
2023-05-19T02:11:02.542Z,6.15
2023-05-19T02:13:33.970Z,6.09
2023-05-19T02:16:05.687Z,6.02
2023-05-19T02:18:33.196Z,5.99
2023-05-19T02:21:00.399Z,5.93
2023-05-19T02:23:27.622Z,5.91
2023-05-19T02:25:54.846Z,5.94
2023-05-19T02:28:22.108Z,5.95
2023-05-19T02:30:49.267Z,5.99
2023-05-19T02:33:17.846Z,5.98
2023-05-19T02:35:45.052Z,6.01
2023-05-19T02:38:12.304Z,5.96
2023-05-19T02:40:39.617Z,5.99
2023-05-19T02:43:07.092Z,5.93
2023-05-19T02:45:34.855Z,5.94
2023-05-19T02:48:02.171Z,5.90
2023-05-19T02:50:31.086Z,5.90
2023-05-19T02:52:58.474Z,5.88
2023-05-19T02:55:25.826Z,5.82
2023-05-19T02:57:53.085Z,5.83
2023-05-19T03:00:20.508Z,5.85
2023-05-19T03:02:47.926Z,5.78
2023-05-19T03:05:15.299Z,5.74
2023-05-19T03:07:43.940Z,5.69
2023-05-19T03:10:11.277Z,5.63
2023-05-19T03:12:38.457Z,5.58
2023-05-19T03:15:06.797Z,5.57
2023-05-19T03:17:34.071Z,5.52
2023-05-19T03:20:01.551Z,5.49
2023-05-19T03:22:28.783Z,5.43
2023-05-19T03:24:57.468Z,5.46
2023-05-19T03:27:24.776Z,5.42
2023-05-19T03:29:51.978Z,5.41
2023-05-19T03:32:19.791Z,5.36
2023-05-19T03:34:47.195Z,5.34
2023-05-19T03:37:15.178Z,5.32
2023-05-19T03:39:42.478Z,5.28
2023-05-19T03:42:11.266Z,5.19
2023-05-19T03:44:38.481Z,5.15
2023-05-19T03:47:06.228Z,5.10
2023-05-19T03:49:56.028Z,4.99
2023-05-19T03:52:41.694Z,4.97
2023-05-19T03:55:22.388Z,4.95
2023-05-19T03:57:51.115Z,4.92
2023-05-19T04:00:18.682Z,4.92
2023-05-19T04:02:46.029Z,4.99
2023-05-19T04:05:14.138Z,5.03
2023-05-19T04:07:41.403Z,5.05
2023-05-19T04:10:09.107Z,5.13
2023-05-19T04:12:36.309Z,5.19
2023-05-19T04:15:05.808Z,5.21
2023-05-19T04:17:33.050Z,5.22
2023-05-19T04:20:00.344Z,5.28
2023-05-19T04:22:29.007Z,5.32
2023-05-19T04:24:56.170Z,5.40
2023-05-19T04:27:24.703Z,5.43
2023-05-19T04:29:51.920Z,5.42
2023-05-19T04:32:20.685Z,5.41
2023-05-19T04:34:48.101Z,5.49
2023-05-19T04:37:21.973Z,5.55
2023-05-19T04:39:50.679Z,5.54
2023-05-19T04:42:18.689Z,5.62
2023-05-19T04:44:47.602Z,5.66
2023-05-19T04:47:15.434Z,5.71
2023-05-19T04:49:44.356Z,5.80
2023-05-19T04:52:11.579Z,5.90
2023-05-19T04:54:40.189Z,5.97
2023-05-19T04:57:07.531Z,6.14
2023-05-19T04:59:38.340Z,6.31
2023-05-19T05:02:08.030Z,6.36
2023-05-19T05:04:37.404Z,6.54
2023-05-19T05:07:06.080Z,6.63
2023-05-19T05:09:34.266Z,6.70
2023-05-19T05:12:03.402Z,6.75
2023-05-19T05:14:31.518Z,6.78
2023-05-19T05:16:59.259Z,6.98
2023-05-19T05:19:27.274Z,7.15
2023-05-19T05:21:55.949Z,7.32
2023-05-19T05:24:25.302Z,7.35
2023-05-19T05:26:56.326Z,7.53
2023-05-19T05:29:23.764Z,7.80
2023-05-19T05:31:51.253Z,7.91
2023-05-19T05:34:18.628Z,8.00
2023-05-19T05:36:45.852Z,8.05
2023-05-19T05:39:13.235Z,8.22
2023-05-19T05:41:43.079Z,8.47
2023-05-19T05:44:12.249Z,8.69
2023-05-19T05:46:42.406Z,8.84
2023-05-19T05:49:10.750Z,8.87
2023-05-19T05:51:40.754Z,8.99
2023-05-19T05:54:12.229Z,8.94
2023-05-19T05:56:46.385Z,9.04
2023-05-19T05:59:13.795Z,9.33
2023-05-19T06:01:41.894Z,9.26
2023-05-19T06:04:10.025Z,9.49
2023-05-19T06:06:37.425Z,9.60
2023-05-19T06:09:05.871Z,9.99
2023-05-19T06:11:33.154Z,9.95
2023-05-19T06:14:02.020Z,10.25
2023-05-19T06:16:46.863Z,10.34
2023-05-19T06:19:16.138Z,10.40
2023-05-19T06:21:44.216Z,10.51
2023-05-19T06:24:11.945Z,10.74
2023-05-19T06:26:39.160Z,11.04
2023-05-19T06:29:07.767Z,11.13
2023-05-19T06:31:35.109Z,11.34
2023-05-19T06:34:14.451Z,11.54
2023-05-19T06:36:41.697Z,11.82
2023-05-19T06:39:09.904Z,11.87
2023-05-19T06:41:38.207Z,11.94
2023-05-19T06:44:09.117Z,12.13
2023-05-19T06:46:36.445Z,12.20
2023-05-19T06:49:04.733Z,12.33
2023-05-19T06:51:37.070Z,12.49
2023-05-19T06:54:04.806Z,12.52
2023-05-19T06:56:32.137Z,12.46
2023-05-19T06:58:59.308Z,12.45
2023-05-19T07:01:33.862Z,12.61
2023-05-19T07:04:01.368Z,12.34
2023-05-19T07:06:29.107Z,12.56
2023-05-19T07:08:56.335Z,12.94
2023-05-19T07:11:24.556Z,13.23
2023-05-19T07:13:51.838Z,13.49
2023-05-19T07:16:24.816Z,13.77
2023-05-19T07:18:53.477Z,13.96
2023-05-19T07:21:20.823Z,14.27
2023-05-19T07:23:48.966Z,14.21
2023-05-19T07:26:16.233Z,14.02
2023-05-19T07:28:43.471Z,14.12
2023-05-19T07:31:10.676Z,14.26
2023-05-19T07:33:37.865Z,14.21
2023-05-19T07:36:06.553Z,14.72
2023-05-19T07:38:33.781Z,15.26
2023-05-19T07:41:01.141Z,15.59
2023-05-19T07:43:28.622Z,15.94
2023-05-19T07:45:55.968Z,16.31
2023-05-19T07:48:23.410Z,16.22
2023-05-19T07:50:50.728Z,15.83
2023-05-19T07:53:19.778Z,15.70
2023-05-19T07:55:46.982Z,15.44
2023-05-19T07:58:14.586Z,15.64
2023-05-19T08:00:41.996Z,15.64
2023-05-19T08:03:09.413Z,16.40
2023-05-19T08:05:37.026Z,17.33
2023-05-19T08:08:04.565Z,17.94
2023-05-19T08:10:33.340Z,18.00
2023-05-19T08:13:00.745Z,18.35
2023-05-19T08:15:28.416Z,18.26
2023-05-19T08:17:55.738Z,17.58
2023-05-19T08:20:22.997Z,18.19
2023-05-19T08:22:50.334Z,18.48
2023-05-19T08:25:17.637Z,18.56
2023-05-19T08:27:46.212Z,18.24
2023-05-19T08:30:13.576Z,17.32
2023-05-19T08:32:40.827Z,17.14
2023-05-19T08:35:09.226Z,17.16
2023-05-19T08:37:36.416Z,17.74
2023-05-19T08:40:03.986Z,18.33
2023-05-19T08:42:31.395Z,18.30
2023-05-19T08:45:00.363Z,18.04
2023-05-19T08:47:28.460Z,17.59
2023-05-19T08:50:03.900Z,18.20
2023-05-19T08:52:37.127Z,18.47
2023-05-19T08:55:08.756Z,18.83
2023-05-19T08:57:36.185Z,18.15
2023-05-19T09:00:06.143Z,17.85
2023-05-19T09:02:33.559Z,17.86
2023-05-19T09:05:01.638Z,17.86
2023-05-19T09:07:30.958Z,18.01
2023-05-19T09:09:58.191Z,17.84
2023-05-19T09:12:25.435Z,17.84
2023-05-19T09:14:53.048Z,17.76
2023-05-19T09:17:21.718Z,18.32
2023-05-19T09:19:48.949Z,18.45
2023-05-19T09:22:16.793Z,18.46
2023-05-19T09:24:44.545Z,18.39
2023-05-19T09:27:15.189Z,18.95
2023-05-19T09:29:43.134Z,19.01
2023-05-19T09:32:10.368Z,18.72
2023-05-19T09:34:41.792Z,19.38
2023-05-19T09:37:09.053Z,19.79
2023-05-19T09:39:36.373Z,19.81
2023-05-19T09:42:06.053Z,20.18
2023-05-19T09:44:35.392Z,20.22
2023-05-19T09:47:03.303Z,19.78
2023-05-19T09:49:30.675Z,20.11
2023-05-19T09:52:01.972Z,19.57
2023-05-19T09:54:29.976Z,19.75
2023-05-19T09:56:57.934Z,19.27
2023-05-19T09:59:25.573Z,19.94
2023-05-19T10:01:55.033Z,20.10
2023-05-19T10:04:23.640Z,19.56
2023-05-19T10:06:51.107Z,18.97
2023-05-19T10:09:22.252Z,18.70
2023-05-19T10:11:51.422Z,18.20
2023-05-19T10:14:20.003Z,18.48
2023-05-19T10:16:50.509Z,18.94
2023-05-19T10:19:21.475Z,19.21
2023-05-19T10:21:49.139Z,18.22
2023-05-19T10:24:16.619Z,18.62
2023-05-19T10:26:49.763Z,19.02
2023-05-19T10:29:20.900Z,18.72
2023-05-19T10:31:51.394Z,19.04
2023-05-19T10:34:36.393Z,19.03
2023-05-19T10:37:14.246Z,19.50
2023-05-19T10:39:43.305Z,19.84
2023-05-19T10:42:16.204Z,19.00
2023-05-19T10:44:58.391Z,19.21
2023-05-19T10:47:25.897Z,19.19
2023-05-19T10:49:53.557Z,19.54
2023-05-19T10:52:21.912Z,18.88
2023-05-19T10:54:49.209Z,18.94
2023-05-19T10:57:20.402Z,18.67
2023-05-19T10:59:47.659Z,18.86
2023-05-19T11:02:39.761Z,19.26
2023-05-19T11:05:08.501Z,19.54
2023-05-19T11:07:36.205Z,19.81
2023-05-19T11:10:07.226Z,19.96
2023-05-19T11:12:52.057Z,20.14
2023-05-19T11:15:26.039Z,20.15
2023-05-19T11:17:53.889Z,20.87
2023-05-19T11:20:22.938Z,21.27
2023-05-19T11:23:07.599Z,20.68
2023-05-19T11:25:45.324Z,20.25
2023-05-19T11:28:16.776Z,20.43
2023-05-19T11:30:46.723Z,20.16
2023-05-19T11:33:14.160Z,20.40
2023-05-19T11:35:43.433Z,21.36
2023-05-19T11:38:11.161Z,21.91
2023-05-19T11:40:38.977Z,22.45
2023-05-19T11:43:06.217Z,22.89
2023-05-19T11:45:35.563Z,22.72
2023-05-19T11:48:03.775Z,22.94
2023-05-19T11:50:31.398Z,23.13
2023-05-19T11:53:00.875Z,22.46
2023-05-19T11:55:28.845Z,22.62
2023-05-19T12:00:30.739Z,23.14
2023-05-19T12:02:59.483Z,22.68
2023-05-19T12:05:27.293Z,22.66
2023-05-19T12:07:54.856Z,22.89
2023-05-19T12:10:23.402Z,22.91
2023-05-19T12:12:50.832Z,22.90
2023-05-19T12:15:19.312Z,22.70
2023-05-19T12:17:49.498Z,22.78
2023-05-19T12:20:19.007Z,22.70
2023-05-19T12:22:47.376Z,23.49
2023-05-19T12:25:15.514Z,22.65
2023-05-19T12:27:43.478Z,23.22
2023-05-19T12:30:11.938Z,22.29
2023-05-19T12:32:39.276Z,22.55
2023-05-19T12:35:07.437Z,22.60
2023-05-19T12:37:36.966Z,22.64
2023-05-19T12:40:04.957Z,22.32
2023-05-19T12:42:32.150Z,21.05
2023-05-19T12:45:01.506Z,21.03
2023-05-19T12:47:31.876Z,21.13
2023-05-19T12:50:02.599Z,21.12
2023-05-19T12:52:32.178Z,22.01
2023-05-19T12:55:01.955Z,22.64
2023-05-19T12:57:29.282Z,22.58
2023-05-19T13:00:00.670Z,22.77
2023-05-19T13:02:27.813Z,23.02
2023-05-19T13:04:55.010Z,23.37
2023-05-19T13:07:22.324Z,21.75
2023-05-19T13:09:49.501Z,22.25
2023-05-19T13:12:18.118Z,21.78
2023-05-19T13:14:45.525Z,21.59
2023-05-19T13:17:12.863Z,21.85
2023-05-19T13:19:40.117Z,21.39
2023-05-19T13:22:07.375Z,22.12
2023-05-19T13:24:34.616Z,21.75
2023-05-19T13:27:01.842Z,21.64
2023-05-19T13:29:30.454Z,22.32
2023-05-19T13:32:00.525Z,22.12
2023-05-19T13:34:28.508Z,22.42
2023-05-19T13:36:55.729Z,22.65
2023-05-19T13:39:23.051Z,21.93
2023-05-19T13:41:50.239Z,21.50
2023-05-19T13:44:17.481Z,21.71
2023-05-19T13:46:47.955Z,21.94
2023-05-19T13:49:16.450Z,22.00
2023-05-19T13:51:43.699Z,21.82
2023-05-19T13:54:10.923Z,20.43
2023-05-19T13:56:38.151Z,20.80
2023-05-19T13:59:05.434Z,20.77
2023-05-19T14:01:32.722Z,20.78
2023-05-19T14:04:01.523Z,20.65
2023-05-19T14:06:28.861Z,21.09
2023-05-19T14:08:56.082Z,21.43
2023-05-19T14:11:23.404Z,21.68
2023-05-19T14:13:52.732Z,21.11
2023-05-19T14:16:20.553Z,20.30
2023-05-19T14:18:47.913Z,20.90
2023-05-19T14:21:16.501Z,20.33
2023-05-19T14:23:44.036Z,20.21
2023-05-19T14:26:11.247Z,20.73
2023-05-19T14:28:38.509Z,20.92
2023-05-19T14:31:05.768Z,21.43
2023-05-19T14:33:35.646Z,21.83
2023-05-19T14:36:03.462Z,20.85
2023-05-19T14:38:32.037Z,20.51
2023-05-19T14:40:59.293Z,20.33
2023-05-19T14:43:26.493Z,20.50
2023-05-19T14:45:53.804Z,20.70
2023-05-19T14:48:21.111Z,20.86
2023-05-19T14:50:48.467Z,20.38
2023-05-19T14:53:15.919Z,20.30
2023-05-19T14:55:44.528Z,20.04
2023-05-19T14:58:26.882Z,19.90
2023-05-19T15:00:57.629Z,19.63
2023-05-19T15:03:25.032Z,19.93
2023-05-19T15:05:52.405Z,20.79
2023-05-19T15:08:19.642Z,20.28
2023-05-19T15:10:49.962Z,20.51
2023-05-19T15:13:17.198Z,20.54
2023-05-19T15:15:44.481Z,20.46
2023-05-19T15:18:11.776Z,19.95
2023-05-19T15:20:39.088Z,20.34
2023-05-19T15:23:06.298Z,20.82
2023-05-19T15:25:33.792Z,21.20
2023-05-19T15:28:02.441Z,20.50
2023-05-19T15:30:29.743Z,20.60
2023-05-19T15:32:56.998Z,20.44
2023-05-19T15:35:24.220Z,21.48
2023-05-19T15:37:51.562Z,21.37
2023-05-19T15:40:19.052Z,20.72
2023-05-19T15:42:46.258Z,20.86
2023-05-19T15:45:14.792Z,20.66
2023-05-19T15:47:42.038Z,20.21
2023-05-19T15:50:09.906Z,19.60
2023-05-19T15:52:37.214Z,20.02
2023-05-19T15:55:05.285Z,20.33
2023-05-19T15:57:32.518Z,20.52
2023-05-19T15:59:59.751Z,20.65
2023-05-19T16:02:28.455Z,19.82
2023-05-19T16:04:55.704Z,19.74
2023-05-19T16:07:23.000Z,19.46
2023-05-19T16:09:50.208Z,18.79
2023-05-19T16:12:17.449Z,18.37
2023-05-19T16:14:44.619Z,18.55
2023-05-19T16:17:11.869Z,18.42
2023-05-19T16:19:40.425Z,18.24
2023-05-19T16:22:07.661Z,18.18
2023-05-19T16:24:34.887Z,18.29
2023-05-19T16:27:02.106Z,18.26
2023-05-19T16:29:29.307Z,18.29
2023-05-19T16:31:56.526Z,18.58
2023-05-19T16:34:23.885Z,18.78
2023-05-19T16:36:52.408Z,18.65
2023-05-19T16:39:19.624Z,18.85
2023-05-19T16:41:46.842Z,18.88
2023-05-19T16:44:14.136Z,18.83
2023-05-19T16:46:41.347Z,18.63
2023-05-19T16:49:08.521Z,18.42
2023-05-19T16:51:35.706Z,18.52
2023-05-19T16:54:04.249Z,18.54
2023-05-19T16:56:31.466Z,18.19
2023-05-19T16:58:58.925Z,18.10
2023-05-19T17:01:26.194Z,18.03
2023-05-19T17:03:53.470Z,17.71
2023-05-19T17:06:20.681Z,17.72
2023-05-19T17:08:47.906Z,17.73
2023-05-19T17:11:16.439Z,17.79
2023-05-19T17:13:43.710Z,17.90
2023-05-19T17:16:10.924Z,17.81
2023-05-19T17:18:38.289Z,17.80
2023-05-19T17:21:05.612Z,17.85
2023-05-19T17:23:32.915Z,17.40
2023-05-19T17:26:00.602Z,17.50
2023-05-19T17:28:29.164Z,17.38
2023-05-19T17:30:56.453Z,17.27
2023-05-19T17:33:23.673Z,17.19
2023-05-19T17:35:50.917Z,17.27
2023-05-19T17:38:18.139Z,17.27
2023-05-19T17:40:45.375Z,17.12
2023-05-19T17:43:12.583Z,17.10
2023-05-19T17:45:41.144Z,16.99
2023-05-19T17:48:08.536Z,17.04
2023-05-19T17:50:35.856Z,16.96
2023-05-19T17:53:03.739Z,16.83
2023-05-19T17:55:31.712Z,16.79
2023-05-19T17:57:59.559Z,16.70
2023-05-19T18:00:27.286Z,16.66
2023-05-19T18:02:56.612Z,16.55
2023-05-19T18:05:24.729Z,16.49
2023-05-19T18:07:53.925Z,16.39
2023-05-19T18:10:24.729Z,16.29
2023-05-19T18:12:51.928Z,16.19
2023-05-19T18:15:19.143Z,16.15
2023-05-19T18:17:46.432Z,16.12
2023-05-19T18:20:15.204Z,16.15
2023-05-19T18:22:42.447Z,15.90
2023-05-19T18:25:10.001Z,15.85
2023-05-19T18:27:37.228Z,15.72
2023-05-19T18:30:05.558Z,15.71
2023-05-19T18:32:33.624Z,15.67
2023-05-19T18:35:00.910Z,15.53
2023-05-19T18:37:29.432Z,15.51
2023-05-19T18:39:56.700Z,15.36
2023-05-19T18:42:24.122Z,15.32
2023-05-19T18:44:51.350Z,15.30
2023-05-19T18:47:18.680Z,15.23
2023-05-19T18:49:45.874Z,15.12
2023-05-19T18:52:13.100Z,15.02
2023-05-19T18:54:41.659Z,14.98
2023-05-19T18:57:08.943Z,14.83
2023-05-19T18:59:36.162Z,14.90
2023-05-19T19:02:03.399Z,14.80
2023-05-19T19:04:30.639Z,14.78
2023-05-19T19:06:57.853Z,14.74
2023-05-19T19:09:25.063Z,14.64
2023-05-19T19:11:53.640Z,14.66
2023-05-19T19:14:20.873Z,14.56
2023-05-19T19:16:48.166Z,14.57
2023-05-19T19:19:15.549Z,14.53
2023-05-19T19:21:43.048Z,14.46
2023-05-19T19:24:10.238Z,14.43
2023-05-19T19:26:37.414Z,14.36
2023-05-19T19:29:05.944Z,14.34
2023-05-19T19:31:33.336Z,14.26
2023-05-19T19:34:00.609Z,14.16
2023-05-19T19:36:27.828Z,14.19
2023-05-19T19:38:55.075Z,14.17
2023-05-19T19:41:22.267Z,14.12
2023-05-19T19:43:49.465Z,14.11
2023-05-19T19:46:18.037Z,14.00
2023-05-19T19:48:45.288Z,14.02
2023-05-19T19:51:12.541Z,14.02
2023-05-19T19:53:39.732Z,13.97
2023-05-19T19:56:06.956Z,13.89
2023-05-19T19:58:34.214Z,13.83
2023-05-19T20:01:03.286Z,13.78
2023-05-19T20:03:32.000Z,13.70
2023-05-19T20:05:59.232Z,13.62
2023-05-19T20:08:27.085Z,13.50
2023-05-19T20:10:54.330Z,13.22
2023-05-19T20:13:21.581Z,13.03
2023-05-19T20:15:48.831Z,13.00
2023-05-19T20:18:16.129Z,13.01
2023-05-19T20:20:44.801Z,12.80
2023-05-19T20:23:12.004Z,12.83
2023-05-19T20:25:44.592Z,12.86
2023-05-19T20:28:17.546Z,12.70
2023-05-19T20:30:44.812Z,12.55
2023-05-19T20:33:12.078Z,12.52
2023-05-19T20:35:39.481Z,12.29
2023-05-19T20:38:08.157Z,12.10
2023-05-19T20:40:37.161Z,12.08
2023-05-19T20:43:04.353Z,12.10
2023-05-19T20:45:31.780Z,12.04
2023-05-19T20:47:59.189Z,11.90
2023-05-19T20:50:26.470Z,11.87
2023-05-19T20:52:53.715Z,11.86
2023-05-19T20:55:22.334Z,11.87
2023-05-19T20:57:49.591Z,11.87
2023-05-19T21:00:17.414Z,11.85
2023-05-19T21:02:44.838Z,11.83
2023-05-19T21:05:12.223Z,11.77
2023-05-19T21:07:39.483Z,11.77
2023-05-19T21:10:07.731Z,11.73
2023-05-19T21:12:36.348Z,11.69
2023-05-19T21:15:04.050Z,11.63
2023-05-19T21:17:31.308Z,11.59
2023-05-19T21:19:58.601Z,11.58
2023-05-19T21:22:26.094Z,11.59
2023-05-19T21:24:53.378Z,11.53
2023-05-19T21:27:20.681Z,11.59
2023-05-19T21:29:52.493Z,11.53
2023-05-19T21:32:19.584Z,11.50
2023-05-19T21:34:46.731Z,11.46
2023-05-19T21:37:13.937Z,11.46
2023-05-19T21:39:41.128Z,11.45
2023-05-19T21:42:08.347Z,11.40
2023-05-19T21:44:35.568Z,11.36
2023-05-19T21:47:04.338Z,11.30
2023-05-19T21:49:31.639Z,11.32
2023-05-19T21:51:58.950Z,11.27
2023-05-19T21:54:26.290Z,11.29
2023-05-19T21:56:53.553Z,11.27
2023-05-19T21:59:20.746Z,11.29
2023-05-19T22:01:48.024Z,11.29
2023-05-19T22:04:18.538Z,11.18
2023-05-19T22:06:46.016Z,11.18
2023-05-19T22:09:13.418Z,11.13
2023-05-19T22:11:40.602Z,11.09
2023-05-19T22:14:07.924Z,10.94
2023-05-19T22:16:35.201Z,10.91
2023-05-19T22:19:02.544Z,10.90
2023-05-19T22:21:31.209Z,10.91
2023-05-19T22:23:58.472Z,10.84
2023-05-19T22:26:25.656Z,10.89
2023-05-19T22:28:52.850Z,10.89
2023-05-19T22:31:20.101Z,10.87
2023-05-19T22:33:47.447Z,10.88
2023-05-19T22:36:14.629Z,10.80
2023-05-19T22:38:43.232Z,10.80
2023-05-19T22:41:10.496Z,10.72
2023-05-19T22:43:37.694Z,10.57
2023-05-19T22:46:05.198Z,10.58
2023-05-19T22:48:32.453Z,10.52
2023-05-19T22:50:59.672Z,10.47
2023-05-19T22:53:26.879Z,10.42
2023-05-19T22:55:55.405Z,10.42
2023-05-19T22:58:22.619Z,10.37
2023-05-19T23:00:49.921Z,10.37
2023-05-19T23:03:17.141Z,10.23
2023-05-19T23:05:44.338Z,10.26
2023-05-19T23:08:11.550Z,10.34
2023-05-19T23:10:38.798Z,10.40
2023-05-19T23:13:07.407Z,10.43
2023-05-19T23:15:34.903Z,10.34
2023-05-19T23:18:03.715Z,10.39
2023-05-19T23:20:30.927Z,10.43
2023-05-19T23:22:58.141Z,10.46
2023-05-19T23:25:25.368Z,10.45
2023-05-19T23:27:52.645Z,10.36
2023-05-19T23:30:21.214Z,10.42
2023-05-19T23:32:48.431Z,10.39
2023-05-19T23:35:17.184Z,10.34
2023-05-19T23:37:44.385Z,10.32
2023-05-19T23:40:12.370Z,10.24
2023-05-19T23:42:39.582Z,10.23
2023-05-19T23:45:08.126Z,10.22
2023-05-19T23:47:36.851Z,10.21
2023-05-19T23:50:04.743Z,10.18
2023-05-19T23:52:31.937Z,10.14
2023-05-19T23:54:59.349Z,10.10
2023-05-19T23:57:26.544Z,10.08
2023-05-19T23:59:53.721Z,10.05
